Black Lion — WDJ2498 — position and weather

sailwx.info

Track history (hours):
 
Tides and Currents Weather Stations Pressure Air Temp Water Temp Dewpoint Dewpoint Depression Visibility Wind Speed Wind Dir Waves Ship Positions

Black Lion

Owner: Black Lion Holdings, LTD., Poland, OH. More information available from US FCC via Universal Licensing System and Coast Guard Vessel Documentation Center.

Last reported at 2018-Jan-26 00:48 UTC. Time now 2018-Feb-18 05:02 UTC.
Position N 14°26' W 060°55'.
Warning: this ship's position is 23 days out of date.

Length 19 m.

Type: Sailing vessel. MMSI: 367758930.

Date/timePositionNaut miles runAvg speedWind from/ knotsBaromVisibWave heightAir tempDewpointWater temp
2018-Jan-26 00:48N 14°26' W 060°55'2 6.4
2018-Jan-26 00:30N 14°27' W 060°53'1 1.0
2018-Jan-25 23:37N 14°28' W 060°53'0 0.1
2018-Jan-25 23:28N 14°28' W 060°53'0 0.0
2018-Jan-25 22:55N 14°28' W 060°53'0 0.0
2018-Jan-25 22:16N 14°28' W 060°53'0 0.0
2018-Jan-25 21:34N 14°28' W 060°53'0 0.0
2018-Jan-25 21:25N 14°28' W 060°53'0 0.0
2018-Jan-25 20:55N 14°28' W 060°53'0 0.0
2018-Jan-25 20:22N 14°28' W 060°53'0 0.0
2018-Jan-25 19:52N 14°28' W 060°53'0 0.0
2018-Jan-25 19:16N 14°28' W 060°53'0 0.0
2018-Jan-25 18:52N 14°28' W 060°53'0 0.0
2018-Jan-25 18:25N 14°28' W 060°53'1 0.7
2018-Jan-25 17:23N 14°28' W 060°52'0 0.0
2018-Jan-25 16:53N 14°28' W 060°52'0 0.0
2018-Jan-25 16:11N 14°28' W 060°52'0 0.0
2018-Jan-25 15:41N 14°28' W 060°52'0 0.0
2018-Jan-25 14:50N 14°28' W 060°52'0 0.0
2018-Jan-25 14:17N 14°28' W 060°52'0 0.0
2018-Jan-25 13:47N 14°28' W 060°52'0 0.0
2018-Jan-25 13:17N 14°28' W 060°52'0 0.0
2018-Jan-25 11:47N 14°28' W 060°52'0 0.0
2018-Jan-25 11:23N 14°28' W 060°52'0 0.0
2018-Jan-25 10:56N 14°28' W 060°52'0 0.0
2018-Jan-25 10:29N 14°28' W 060°52'0 0.0
2018-Jan-25 09:59N 14°28' W 060°52'0 0.0
2018-Jan-25 09:17N 14°28' W 060°52'0 0.0
2018-Jan-25 08:56N 14°28' W 060°52'0 0.0
2018-Jan-25 08:29N 14°28' W 060°52'0 0.0
2018-Jan-25 07:59N 14°28' W 060°52'0 0.0
2018-Jan-25 07:23N 14°28' W 060°52'0 0.0
2018-Jan-25 06:59N 14°28' W 060°52'0 0.0
2018-Jan-25 06:29N 14°28' W 060°52'0 0.0
2018-Jan-25 05:50N 14°28' W 060°52'0 0.0
2018-Jan-25 05:17N 14°28' W 060°52'0 0.0
2018-Jan-25 04:59N 14°28' W 060°52'0 0.0
2018-Jan-25 04:20N 14°28' W 060°52'0 0.0
2018-Jan-25 03:53N 14°28' W 060°52'0 0.0
2018-Jan-25 03:29N 14°28' W 060°52'0 0.0
2018-Jan-25 02:53N 14°28' W 060°52'0 0.0
2018-Jan-25 01:59N 14°28' W 060°52'0 0.0
2018-Jan-25 01:14N 14°28' W 060°52'0 0.0
2018-Jan-25 00:56N 14°28' W 060°52'0 0.0
2018-Jan-25 00:23N 14°28' W 060°52'0 0.0
2018-Jan-24 23:59N 14°28' W 060°52'0 0.0
2018-Jan-24 23:20N 14°28' W 060°52'0 0.0
2018-Jan-24 20:14N 14°28' W 060°52'0 0.0
2018-Jan-24 19:57N 14°28' W 060°52'0 0.0
2018-Jan-24 18:44N 14°28' W 060°52'0 0.0
2018-Jan-24 18:29N 14°28' W 060°52'0 0.0
2018-Jan-24 11:47N 14°28' W 060°52'0 0.0
2018-Jan-24 11:23N 14°28' W 060°52'0 0.0
2018-Jan-24 10:00N 14°28' W 060°52'0 0.0
2018-Jan-24 08:05N 14°28' W 060°52'0 0.0
2018-Jan-24 07:35N 14°28' W 060°52'0 0.0
2018-Jan-24 07:11N 14°28' W 060°52'0 0.0
2018-Jan-24 06:53N 14°28' W 060°52'0 0.0
2018-Jan-24 06:29N 14°28' W 060°52'0 0.0
2018-Jan-24 05:47N 14°28' W 060°52'0 0.0
2018-Jan-24 05:29N 14°28' W 060°52'0 0.0
2018-Jan-24 04:53N 14°28' W 060°52'0 0.0
2018-Jan-24 04:29N 14°28' W 060°52'0 0.0
2018-Jan-24 03:59N 14°28' W 060°52'0 0.0
2018-Jan-24 03:11N 14°28' W 060°52'0 0.0
2018-Jan-24 02:35N 14°28' W 060°52'0 0.0
2018-Jan-24 01:05N 14°28' W 060°52'0 0.0
2018-Jan-24 00:59N 14°28' W 060°52'0 0.0
2018-Jan-24 00:20N 14°28' W 060°52'0 0.0
2018-Jan-23 23:59N 14°28' W 060°52'0 0.0
2018-Jan-23 23:23N 14°28' W 060°52'0 0.0
2018-Jan-23 21:23N 14°28' W 060°52'0 0.0
2018-Jan-23 20:59N 14°28' W 060°52'0 0.0
2018-Jan-23 19:08N 14°28' W 060°52'0 0.1
2018-Jan-23 17:40N 14°28' W 060°52'0 2.1
2018-Jan-23 17:26N 14°28' W 060°52'2 4.7
2018-Jan-23 17:00N 14°27' W 060°54'149 7.1
2018-Jan-22 19:51N 16°46' W 061°49'3 8.0
2018-Jan-22 19:28N 16°49' W 061°49'4 8.0
2018-Jan-22 18:58N 16°53' W 061°48'4 8.2
2018-Jan-22 18:30N 16°57' W 061°47'4 7.8
2018-Jan-22 18:00N 17°01' W 061°47'0 0.8
2018-Jan-22 17:28N 17°01' W 061°47'0 0.0
2018-Jan-22 16:58N 17°01' W 061°47'0 0.0
2018-Jan-22 16:28N 17°01' W 061°47'0 0.0
2018-Jan-22 15:58N 17°01' W 061°47'0 0.0
2018-Jan-22 15:28N 17°01' W 061°47'0 0.0
2018-Jan-22 14:58N 17°01' W 061°47'0 0.0
2018-Jan-22 14:28N 17°01' W 061°47'0 0.0
2018-Jan-22 13:58N 17°01' W 061°47'0 0.0
2018-Jan-22 13:28N 17°01' W 061°47'0 0.0
2018-Jan-22 12:58N 17°01' W 061°47'0 0.0
2018-Jan-22 12:28N 17°01' W 061°47'0 0.0
2018-Jan-22 11:58N 17°01' W 061°47'0 0.0
2018-Jan-22 11:28N 17°01' W 061°47'0 0.0
2018-Jan-22 10:58N 17°01' W 061°47'0 0.0
2018-Jan-22 10:28N 17°01' W 061°47'0 0.0
2018-Jan-22 09:58N 17°01' W 061°47'0 0.0
2018-Jan-22 09:28N 17°01' W 061°47'0 0.0
2018-Jan-22 08:58N 17°01' W 061°47'0 0.0
2018-Jan-22 08:28N 17°01' W 061°47'0 0.0
2018-Jan-22 07:58N 17°01' W 061°47'0 0.0
2018-Jan-22 07:28N 17°01' W 061°47'0 0.0
2018-Jan-22 06:58N 17°01' W 061°47'0 0.0
2018-Jan-22 06:28N 17°01' W 061°47'0 0.0
2018-Jan-22 05:58N 17°01' W 061°47'0 0.0
2018-Jan-22 05:28N 17°01' W 061°47'0 0.0
2018-Jan-22 04:58N 17°01' W 061°47'0 0.0
2018-Jan-22 04:28N 17°01' W 061°47'0 0.0
2018-Jan-22 03:58N 17°01' W 061°47'0 0.0
2018-Jan-22 03:28N 17°01' W 061°47'0 0.0
2018-Jan-22 02:58N 17°01' W 061°47'0 0.0
2018-Jan-22 02:28N 17°01' W 061°47'0 0.0
2018-Jan-22 01:58N 17°01' W 061°47'0 0.0
2018-Jan-22 01:28N 17°01' W 061°47'0 0.0
2018-Jan-22 00:58N 17°01' W 061°47'0 0.0
2018-Jan-22 00:28N 17°01' W 061°47'0 0.0
2018-Jan-21 23:58N 17°01' W 061°47'0 0.0
2018-Jan-21 23:28N 17°01' W 061°47'0 0.0
2018-Jan-21 22:58N 17°01' W 061°47'0 0.0
2018-Jan-21 22:28N 17°01' W 061°47'0 0.0
2018-Jan-21 21:58N 17°01' W 061°47'0 0.0
2018-Jan-21 21:28N 17°01' W 061°47'0 0.0
2018-Jan-21 20:58N 17°01' W 061°47'0 0.0
2018-Jan-21 20:28N 17°01' W 061°47'0 0.0
2018-Jan-21 19:58N 17°01' W 061°47'0 0.0
2018-Jan-21 19:28N 17°01' W 061°47'0 0.0
2018-Jan-21 18:58N 17°01' W 061°47'0 0.0
2018-Jan-21 18:28N 17°01' W 061°47'0 0.0
2018-Jan-21 17:58N 17°01' W 061°47'0 0.0
2018-Jan-21 17:28N 17°01' W 061°47'0 0.0
2018-Jan-21 16:58N 17°01' W 061°47'0 0.0
2018-Jan-21 16:28N 17°01' W 061°47'0 0.0
2018-Jan-21 15:58N 17°01' W 061°47'0 0.0
2018-Jan-21 15:28N 17°01' W 061°47'0 0.0
2018-Jan-21 14:58N 17°01' W 061°47'0 0.0
2018-Jan-21 14:28N 17°01' W 061°47'0 0.0
2018-Jan-21 13:55N 17°01' W 061°47'0 0.0
2018-Jan-21 13:28N 17°01' W 061°47'0 0.1
2018-Jan-21 12:59N 17°01' W 061°47'0 0.0
2018-Jan-21 12:30N 17°01' W 061°47'0 0.0
2018-Jan-21 11:59N 17°01' W 061°47'0 0.0
2018-Jan-21 11:27N 17°01' W 061°47'0 0.0
2018-Jan-21 11:00N 17°01' W 061°47'0 0.0
2018-Jan-21 10:30N 17°01' W 061°47'0 0.0
2018-Jan-21 09:59N 17°01' W 061°47'0 0.0
2018-Jan-21 09:29N 17°01' W 061°47'0 0.0
2018-Jan-21 08:57N 17°01' W 061°47'0 0.0
2018-Jan-21 08:30N 17°01' W 061°47'0 0.0
2018-Jan-21 08:00N 17°01' W 061°47'0 0.0
2018-Jan-21 07:29N 17°01' W 061°47'0 0.0
2018-Jan-21 07:00N 17°01' W 061°47'0 0.0
2018-Jan-21 06:30N 17°01' W 061°47'0 0.0
2018-Jan-21 06:00N 17°01' W 061°47'0 0.0
2018-Jan-21 05:30N 17°01' W 061°47'0 0.0
2018-Jan-21 05:00N 17°01' W 061°47'0 0.0
2018-Jan-21 04:30N 17°01' W 061°47'0 0.0
2018-Jan-21 03:59N 17°01' W 061°47'0 0.0
2018-Jan-21 03:30N 17°01' W 061°47'0 0.0
2018-Jan-21 02:59N 17°01' W 061°47'0 0.0
2018-Jan-21 02:27N 17°01' W 061°47'0 0.0
2018-Jan-21 02:00N 17°01' W 061°47'0 0.0
2018-Jan-21 01:30N 17°01' W 061°47'0 0.0
2018-Jan-21 00:59N 17°01' W 061°47'0 0.0
2018-Jan-21 00:30N 17°01' W 061°47'0 0.0
2018-Jan-20 23:59N 17°01' W 061°47'0 0.0
2018-Jan-20 23:26N 17°01' W 061°47'0 0.0
2018-Jan-20 22:59N 17°01' W 061°47'0 0.0
2018-Jan-20 22:30N 17°01' W 061°47'0 0.0
2018-Jan-20 22:00N 17°01' W 061°47'0 0.0
2018-Jan-20 21:29N 17°01' W 061°47'0 0.0
2018-Jan-20 20:59N 17°01' W 061°47'0 0.0
2018-Jan-20 20:30N 17°01' W 061°47'0 0.0
2018-Jan-20 19:59N 17°01' W 061°47'0 0.0
2018-Jan-20 19:30N 17°01' W 061°47'0 0.0
2018-Jan-20 18:59N 17°01' W 061°47'0 0.0
2018-Jan-20 18:29N 17°01' W 061°47'0 0.0
2018-Jan-20 18:00N 17°01' W 061°47'0 0.0
2018-Jan-20 17:30N 17°01' W 061°47'0 0.0
2018-Jan-20 17:00N 17°01' W 061°47'0 0.0
2018-Jan-20 16:30N 17°01' W 061°47'0 0.0
2018-Jan-20 15:59N 17°01' W 061°47'0 0.0
2018-Jan-20 15:29N 17°01' W 061°47'0 0.0
2018-Jan-20 15:00N 17°01' W 061°47'0 0.0
2018-Jan-20 14:30N 17°01' W 061°47'0 0.0
2018-Jan-20 13:59N 17°01' W 061°47'0 0.0
2018-Jan-20 13:30N 17°01' W 061°47'0 0.0
2018-Jan-20 12:59N 17°01' W 061°47'0 0.0
2018-Jan-20 12:30N 17°01' W 061°47'0 0.0
2018-Jan-20 12:00N 17°01' W 061°47'0 0.0
2018-Jan-20 11:29N 17°01' W 061°47'0 0.0
2018-Jan-20 11:00N 17°01' W 061°47'0 0.0
2018-Jan-20 10:29N 17°01' W 061°47'0 0.0
2018-Jan-20 10:00N 17°01' W 061°47'0 0.0
2018-Jan-20 09:30N 17°01' W 061°47'0 0.0
2018-Jan-20 08:59N 17°01' W 061°47'0 0.0
2018-Jan-20 08:29N 17°01' W 061°47'0 0.0
2018-Jan-20 08:00N 17°01' W 061°47'0 0.0
2018-Jan-20 07:30N 17°01' W 061°47'0 0.0
2018-Jan-20 06:59N 17°01' W 061°47'0 0.0
2018-Jan-20 06:29N 17°01' W 061°47'0 0.0
2018-Jan-20 05:57N 17°01' W 061°47'0 0.0
2018-Jan-20 05:30N 17°01' W 061°47'0 0.0
2018-Jan-20 04:59N 17°01' W 061°47'0 0.0
2018-Jan-20 04:30N 17°01' W 061°47'0 0.0
2018-Jan-20 04:00N 17°01' W 061°47'0 0.0
2018-Jan-20 03:27N 17°01' W 061°47'0 0.0
2018-Jan-20 02:56N 17°01' W 061°47'0 0.0
2018-Jan-20 02:29N 17°01' W 061°47'0 0.0
2018-Jan-20 01:59N 17°01' W 061°47'0 0.0
2018-Jan-20 01:30N 17°01' W 061°47'0 0.0
2018-Jan-20 00:57N 17°01' W 061°47'0 0.0
2018-Jan-20 00:29N 17°01' W 061°47'0 0.0
2018-Jan-19 23:59N 17°01' W 061°47'0 0.0
2018-Jan-19 23:30N 17°01' W 061°47'0 0.0
2018-Jan-19 23:00N 17°01' W 061°47'0 0.0
2018-Jan-19 22:29N 17°01' W 061°47'0 0.0
2018-Jan-19 21:59N 17°01' W 061°47'0 0.0
2018-Jan-19 21:27N 17°01' W 061°47'0 0.0
2018-Jan-19 20:57N 17°01' W 061°47'0 0.0
2018-Jan-19 20:29N 17°01' W 061°47'0 0.0
2018-Jan-19 19:59N 17°01' W 061°47'0 0.0
2018-Jan-19 19:29N 17°01' W 061°47'0 0.0
2018-Jan-19 18:59N 17°01' W 061°47'0 0.0
2018-Jan-19 18:30N 17°01' W 061°47'0 0.0
2018-Jan-19 18:00N 17°01' W 061°47'0 0.0
2018-Jan-19 17:29N 17°01' W 061°47'0 0.0
2018-Jan-19 17:00N 17°01' W 061°47'0 0.0
2018-Jan-19 16:29N 17°01' W 061°47'0 0.0
2018-Jan-19 15:59N 17°01' W 061°47'0 0.0
2018-Jan-19 15:29N 17°01' W 061°47'0 0.0
2018-Jan-19 15:00N 17°01' W 061°47'0 0.0
2018-Jan-19 14:30N 17°01' W 061°47'0 0.0
2018-Jan-19 14:00N 17°01' W 061°47'0 0.0
2018-Jan-19 13:29N 17°01' W 061°47'0 0.0
2018-Jan-19 13:00N 17°01' W 061°47'0 0.0
2018-Jan-19 12:30N 17°01' W 061°47'0 0.0
2018-Jan-19 11:59N 17°01' W 061°47'0 0.0
2018-Jan-19 11:29N 17°01' W 061°47'0 0.0
2018-Jan-19 10:56N 17°01' W 061°47'0 0.0
2018-Jan-19 10:29N 17°01' W 061°47'0 0.0
2018-Jan-19 09:59N 17°01' W 061°47'0 0.0
2018-Jan-19 09:30N 17°01' W 061°47'0 0.0
2018-Jan-19 09:00N 17°01' W 061°47'0 0.0
2018-Jan-19 08:30N 17°01' W 061°47'0 0.0
2018-Jan-19 07:56N 17°01' W 061°47'0 0.0
2018-Jan-19 07:27N 17°01' W 061°47'0 0.0
2018-Jan-19 06:57N 17°01' W 061°47'0 0.0
2018-Jan-19 06:30N 17°01' W 061°47'0 0.0
2018-Jan-19 06:00N 17°01' W 061°47'0 0.0
2018-Jan-19 05:30N 17°01' W 061°47'0 0.0
2018-Jan-19 05:00N 17°01' W 061°47'0 0.0
2018-Jan-19 04:30N 17°01' W 061°47'0 0.0
2018-Jan-19 03:59N 17°01' W 061°47'0 0.0
2018-Jan-19 03:30N 17°01' W 061°47'0 0.0
2018-Jan-19 03:00N 17°01' W 061°47'0 0.0
2018-Jan-19 02:29N 17°01' W 061°47'0 0.0
2018-Jan-19 02:00N 17°01' W 061°47'0 0.0
2018-Jan-19 01:29N 17°01' W 061°47'0 0.0
2018-Jan-19 00:59N 17°01' W 061°47'0 0.0
2018-Jan-19 00:30N 17°01' W 061°47'0 0.0
2018-Jan-18 23:59N 17°01' W 061°47'0 0.0
2018-Jan-18 23:30N 17°01' W 061°47'0 0.0
2018-Jan-18 22:59N 17°01' W 061°47'0 0.0
2018-Jan-18 22:30N 17°01' W 061°47'0 0.0
2018-Jan-18 22:00N 17°01' W 061°47'0 0.0
2018-Jan-18 21:29N 17°01' W 061°47'0 0.0
2018-Jan-18 20:59N 17°01' W 061°47'0 0.0
2018-Jan-18 20:30N 17°01' W 061°47'0 0.0
2018-Jan-18 20:00N 17°01' W 061°47'0 0.0
2018-Jan-18 19:29N 17°01' W 061°47'0 0.0
2018-Jan-18 19:00N 17°01' W 061°47'0 0.0
2018-Jan-18 18:29N 17°01' W 061°47'0 0.0
2018-Jan-18 18:00N 17°01' W 061°47'0 0.0
2018-Jan-18 17:30N 17°01' W 061°47'0 0.0
2018-Jan-18 16:56N 17°01' W 061°47'0 0.0
2018-Jan-18 16:30N 17°01' W 061°47'0 0.0
2018-Jan-18 16:00N 17°01' W 061°47'0 0.0
2018-Jan-18 15:30N 17°01' W 061°47'0 0.0
2018-Jan-18 15:00N 17°01' W 061°47'0 0.0
2018-Jan-18 14:29N 17°01' W 061°47'0 0.0
2018-Jan-18 14:00N 17°01' W 061°47'0 0.0
2018-Jan-18 13:29N 17°01' W 061°47'0 0.0
2018-Jan-18 13:00N 17°01' W 061°47'0 0.0
2018-Jan-18 12:29N 17°01' W 061°47'0 0.0
2018-Jan-18 11:59N 17°01' W 061°47'0 0.0
2018-Jan-18 11:29N 17°01' W 061°47'0 0.0
2018-Jan-18 10:59N 17°01' W 061°47'0 0.0
2018-Jan-18 10:29N 17°01' W 061°47'0 0.0
2018-Jan-18 10:00N 17°01' W 061°47'0 0.0
2018-Jan-18 09:30N 17°01' W 061°47'0 0.0
2018-Jan-18 08:59N 17°01' W 061°47'0 0.0
2018-Jan-18 08:29N 17°01' W 061°47'0 0.0
2018-Jan-18 07:59N 17°01' W 061°47'0 0.0
2018-Jan-18 07:26N 17°01' W 061°47'0 0.0
2018-Jan-18 07:00N 17°01' W 061°47'0 0.0
2018-Jan-18 06:30N 17°01' W 061°47'0 0.0
2018-Jan-18 05:59N 17°01' W 061°47'0 0.0
2018-Jan-18 05:29N 17°01' W 061°47'0 0.0
2018-Jan-18 05:00N 17°01' W 061°47'0 0.0
2018-Jan-18 04:30N 17°01' W 061°47'0 0.0
2018-Jan-18 04:00N 17°01' W 061°47'0 0.0
2018-Jan-18 03:30N 17°01' W 061°47'0 0.0
2018-Jan-18 03:00N 17°01' W 061°47'0 0.0
2018-Jan-18 02:30N 17°01' W 061°47'0 0.0
2018-Jan-18 02:00N 17°01' W 061°47'0 0.0
2018-Jan-18 01:29N 17°01' W 061°47'0 0.0
2018-Jan-18 01:00N 17°01' W 061°47'0 0.0
2018-Jan-18 00:00N 17°01' W 061°47'0 0.2
2018-Jan-17 23:57N 17°01' W 061°47'  
Track history (hours):
 
Tides and Currents Weather Stations Pressure Air Temp Water Temp Dewpoint Dewpoint Depression Visibility Wind Speed Wind Dir Waves Ship Positions

Black Lion

Owner: Black Lion Holdings, LTD., Poland, OH. More information available from US FCC via Universal Licensing System and Coast Guard Vessel Documentation Center.

Last reported at 2018-Jan-26 00:48 UTC. Time now 2018-Feb-18 05:02 UTC.
Position N 14°26' W 060°55'.
Warning: this ship's position is 23 days out of date.

Length 19 m.

Type: Sailing vessel. MMSI: 367758930.

Date/timePositionNaut miles runAvg speedWind from/ knotsBaromVisibWave heightAir tempDewpointWater temp
2018-Jan-26 00:48N 14°26' W 060°55'2 6.4
2018-Jan-26 00:30N 14°27' W 060°53'1 1.0
2018-Jan-25 23:37N 14°28' W 060°53'0 0.1
2018-Jan-25 23:28N 14°28' W 060°53'0 0.0
2018-Jan-25 22:55N 14°28' W 060°53'0 0.0
2018-Jan-25 22:16N 14°28' W 060°53'0 0.0
2018-Jan-25 21:34N 14°28' W 060°53'0 0.0
2018-Jan-25 21:25N 14°28' W 060°53'0 0.0
2018-Jan-25 20:55N 14°28' W 060°53'0 0.0
2018-Jan-25 20:22N 14°28' W 060°53'0 0.0
2018-Jan-25 19:52N 14°28' W 060°53'0 0.0
2018-Jan-25 19:16N 14°28' W 060°53'0 0.0
2018-Jan-25 18:52N 14°28' W 060°53'0 0.0
2018-Jan-25 18:25N 14°28' W 060°53'1 0.7
2018-Jan-25 17:23N 14°28' W 060°52'0 0.0
2018-Jan-25 16:53N 14°28' W 060°52'0 0.0
2018-Jan-25 16:11N 14°28' W 060°52'0 0.0
2018-Jan-25 15:41N 14°28' W 060°52'0 0.0
2018-Jan-25 14:50N 14°28' W 060°52'0 0.0
2018-Jan-25 14:17N 14°28' W 060°52'0 0.0
2018-Jan-25 13:47N 14°28' W 060°52'0 0.0
2018-Jan-25 13:17N 14°28' W 060°52'0 0.0
2018-Jan-25 11:47N 14°28' W 060°52'0 0.0
2018-Jan-25 11:23N 14°28' W 060°52'0 0.0
2018-Jan-25 10:56N 14°28' W 060°52'0 0.0
2018-Jan-25 10:29N 14°28' W 060°52'0 0.0
2018-Jan-25 09:59N 14°28' W 060°52'0 0.0
2018-Jan-25 09:17N 14°28' W 060°52'0 0.0
2018-Jan-25 08:56N 14°28' W 060°52'0 0.0
2018-Jan-25 08:29N 14°28' W 060°52'0 0.0
2018-Jan-25 07:59N 14°28' W 060°52'0 0.0
2018-Jan-25 07:23N 14°28' W 060°52'0 0.0
2018-Jan-25 06:59N 14°28' W 060°52'0 0.0
2018-Jan-25 06:29N 14°28' W 060°52'0 0.0
2018-Jan-25 05:50N 14°28' W 060°52'0 0.0
2018-Jan-25 05:17N 14°28' W 060°52'0 0.0
2018-Jan-25 04:59N 14°28' W 060°52'0 0.0
2018-Jan-25 04:20N 14°28' W 060°52'0 0.0
2018-Jan-25 03:53N 14°28' W 060°52'0 0.0
2018-Jan-25 03:29N 14°28' W 060°52'0 0.0
2018-Jan-25 02:53N 14°28' W 060°52'0 0.0
2018-Jan-25 01:59N 14°28' W 060°52'0 0.0
2018-Jan-25 01:14N 14°28' W 060°52'0 0.0
2018-Jan-25 00:56N 14°28' W 060°52'0 0.0
2018-Jan-25 00:23N 14°28' W 060°52'0 0.0
2018-Jan-24 23:59N 14°28' W 060°52'0 0.0
2018-Jan-24 23:20N 14°28' W 060°52'0 0.0
2018-Jan-24 20:14N 14°28' W 060°52'0 0.0
2018-Jan-24 19:57N 14°28' W 060°52'0 0.0
2018-Jan-24 18:44N 14°28' W 060°52'0 0.0
2018-Jan-24 18:29N 14°28' W 060°52'0 0.0
2018-Jan-24 11:47N 14°28' W 060°52'0 0.0
2018-Jan-24 11:23N 14°28' W 060°52'0 0.0
2018-Jan-24 10:00N 14°28' W 060°52'0 0.0
2018-Jan-24 08:05N 14°28' W 060°52'0 0.0
2018-Jan-24 07:35N 14°28' W 060°52'0 0.0
2018-Jan-24 07:11N 14°28' W 060°52'0 0.0
2018-Jan-24 06:53N 14°28' W 060°52'0 0.0
2018-Jan-24 06:29N 14°28' W 060°52'0 0.0
2018-Jan-24 05:47N 14°28' W 060°52'0 0.0
2018-Jan-24 05:29N 14°28' W 060°52'0 0.0
2018-Jan-24 04:53N 14°28' W 060°52'0 0.0
2018-Jan-24 04:29N 14°28' W 060°52'0 0.0
2018-Jan-24 03:59N 14°28' W 060°52'0 0.0
2018-Jan-24 03:11N 14°28' W 060°52'0 0.0
2018-Jan-24 02:35N 14°28' W 060°52'0 0.0
2018-Jan-24 01:05N 14°28' W 060°52'0 0.0
2018-Jan-24 00:59N 14°28' W 060°52'0 0.0
2018-Jan-24 00:20N 14°28' W 060°52'0 0.0
2018-Jan-23 23:59N 14°28' W 060°52'0 0.0
2018-Jan-23 23:23N 14°28' W 060°52'0 0.0
2018-Jan-23 21:23N 14°28' W 060°52'0 0.0
2018-Jan-23 20:59N 14°28' W 060°52'0 0.0
2018-Jan-23 19:08N 14°28' W 060°52'0 0.1
2018-Jan-23 17:40N 14°28' W 060°52'0 2.1
2018-Jan-23 17:26N 14°28' W 060°52'2 4.7
2018-Jan-23 17:00N 14°27' W 060°54'149 7.1
2018-Jan-22 19:51N 16°46' W 061°49'3 8.0
2018-Jan-22 19:28N 16°49' W 061°49'4 8.0
2018-Jan-22 18:58N 16°53' W 061°48'4 8.2
2018-Jan-22 18:30N 16°57' W 061°47'4 7.8
2018-Jan-22 18:00N 17°01' W 061°47'0 0.8
2018-Jan-22 17:28N 17°01' W 061°47'0 0.0
2018-Jan-22 16:58N 17°01' W 061°47'0 0.0
2018-Jan-22 16:28N 17°01' W 061°47'0 0.0
2018-Jan-22 15:58N 17°01' W 061°47'0 0.0
2018-Jan-22 15:28N 17°01' W 061°47'0 0.0
2018-Jan-22 14:58N 17°01' W 061°47'0 0.0
2018-Jan-22 14:28N 17°01' W 061°47'0 0.0
2018-Jan-22 13:58N 17°01' W 061°47'0 0.0
2018-Jan-22 13:28N 17°01' W 061°47'0 0.0
2018-Jan-22 12:58N 17°01' W 061°47'0 0.0
2018-Jan-22 12:28N 17°01' W 061°47'0 0.0
2018-Jan-22 11:58N 17°01' W 061°47'0 0.0
2018-Jan-22 11:28N 17°01' W 061°47'0 0.0
2018-Jan-22 10:58N 17°01' W 061°47'0 0.0
2018-Jan-22 10:28N 17°01' W 061°47'0 0.0
2018-Jan-22 09:58N 17°01' W 061°47'0 0.0
2018-Jan-22 09:28N 17°01' W 061°47'0 0.0
2018-Jan-22 08:58N 17°01' W 061°47'0 0.0
2018-Jan-22 08:28N 17°01' W 061°47'0 0.0
2018-Jan-22 07:58N 17°01' W 061°47'0 0.0
2018-Jan-22 07:28N 17°01' W 061°47'0 0.0
2018-Jan-22 06:58N 17°01' W 061°47'0 0.0
2018-Jan-22 06:28N 17°01' W 061°47'0 0.0
2018-Jan-22 05:58N 17°01' W 061°47'0 0.0
2018-Jan-22 05:28N 17°01' W 061°47'0 0.0
2018-Jan-22 04:58N 17°01' W 061°47'0 0.0
2018-Jan-22 04:28N 17°01' W 061°47'0 0.0
2018-Jan-22 03:58N 17°01' W 061°47'0 0.0
2018-Jan-22 03:28N 17°01' W 061°47'0 0.0
2018-Jan-22 02:58N 17°01' W 061°47'0 0.0
2018-Jan-22 02:28N 17°01' W 061°47'0 0.0
2018-Jan-22 01:58N 17°01' W 061°47'0 0.0
2018-Jan-22 01:28N 17°01' W 061°47'0 0.0
2018-Jan-22 00:58N 17°01' W 061°47'0 0.0
2018-Jan-22 00:28N 17°01' W 061°47'0 0.0
2018-Jan-21 23:58N 17°01' W 061°47'0 0.0
2018-Jan-21 23:28N 17°01' W 061°47'0 0.0
2018-Jan-21 22:58N 17°01' W 061°47'0 0.0
2018-Jan-21 22:28N 17°01' W 061°47'0 0.0
2018-Jan-21 21:58N 17°01' W 061°47'0 0.0
2018-Jan-21 21:28N 17°01' W 061°47'0 0.0
2018-Jan-21 20:58N 17°01' W 061°47'0 0.0
2018-Jan-21 20:28N 17°01' W 061°47'0 0.0
2018-Jan-21 19:58N 17°01' W 061°47'0 0.0
2018-Jan-21 19:28N 17°01' W 061°47'0 0.0
2018-Jan-21 18:58N 17°01' W 061°47'0 0.0
2018-Jan-21 18:28N 17°01' W 061°47'0 0.0
2018-Jan-21 17:58N 17°01' W 061°47'0 0.0
2018-Jan-21 17:28N 17°01' W 061°47'0 0.0
2018-Jan-21 16:58N 17°01' W 061°47'0 0.0
2018-Jan-21 16:28N 17°01' W 061°47'0 0.0
2018-Jan-21 15:58N 17°01' W 061°47'0 0.0
2018-Jan-21 15:28N 17°01' W 061°47'0 0.0
2018-Jan-21 14:58N 17°01' W 061°47'0 0.0
2018-Jan-21 14:28N 17°01' W 061°47'0 0.0
2018-Jan-21 13:55N 17°01' W 061°47'0 0.0
2018-Jan-21 13:28N 17°01' W 061°47'0 0.1
2018-Jan-21 12:59N 17°01' W 061°47'0 0.0
2018-Jan-21 12:30N 17°01' W 061°47'0 0.0
2018-Jan-21 11:59N 17°01' W 061°47'0 0.0
2018-Jan-21 11:27N 17°01' W 061°47'0 0.0
2018-Jan-21 11:00N 17°01' W 061°47'0 0.0
2018-Jan-21 10:30N 17°01' W 061°47'0 0.0
2018-Jan-21 09:59N 17°01' W 061°47'0 0.0
2018-Jan-21 09:29N 17°01' W 061°47'0 0.0
2018-Jan-21 08:57N 17°01' W 061°47'0 0.0
2018-Jan-21 08:30N 17°01' W 061°47'0 0.0
2018-Jan-21 08:00N 17°01' W 061°47'0 0.0
2018-Jan-21 07:29N 17°01' W 061°47'0 0.0
2018-Jan-21 07:00N 17°01' W 061°47'0 0.0
2018-Jan-21 06:30N 17°01' W 061°47'0 0.0
2018-Jan-21 06:00N 17°01' W 061°47'0 0.0
2018-Jan-21 05:30N 17°01' W 061°47'0 0.0
2018-Jan-21 05:00N 17°01' W 061°47'0 0.0
2018-Jan-21 04:30N 17°01' W 061°47'0 0.0
2018-Jan-21 03:59N 17°01' W 061°47'0 0.0
2018-Jan-21 03:30N 17°01' W 061°47'0 0.0
2018-Jan-21 02:59N 17°01' W 061°47'0 0.0
2018-Jan-21 02:27N 17°01' W 061°47'0 0.0
2018-Jan-21 02:00N 17°01' W 061°47'0 0.0
2018-Jan-21 01:30N 17°01' W 061°47'0 0.0
2018-Jan-21 00:59N 17°01' W 061°47'0 0.0
2018-Jan-21 00:30N 17°01' W 061°47'0 0.0
2018-Jan-20 23:59N 17°01' W 061°47'0 0.0
2018-Jan-20 23:26N 17°01' W 061°47'0 0.0
2018-Jan-20 22:59N 17°01' W 061°47'0 0.0
2018-Jan-20 22:30N 17°01' W 061°47'0 0.0
2018-Jan-20 22:00N 17°01' W 061°47'0 0.0
2018-Jan-20 21:29N 17°01' W 061°47'0 0.0
2018-Jan-20 20:59N 17°01' W 061°47'0 0.0
2018-Jan-20 20:30N 17°01' W 061°47'0 0.0
2018-Jan-20 19:59N 17°01' W 061°47'0 0.0
2018-Jan-20 19:30N 17°01' W 061°47'0 0.0
2018-Jan-20 18:59N 17°01' W 061°47'0 0.0
2018-Jan-20 18:29N 17°01' W 061°47'0 0.0
2018-Jan-20 18:00N 17°01' W 061°47'0 0.0
2018-Jan-20 17:30N 17°01' W 061°47'0 0.0
2018-Jan-20 17:00N 17°01' W 061°47'0 0.0
2018-Jan-20 16:30N 17°01' W 061°47'0 0.0
2018-Jan-20 15:59N 17°01' W 061°47'0 0.0
2018-Jan-20 15:29N 17°01' W 061°47'0 0.0
2018-Jan-20 15:00N 17°01' W 061°47'0 0.0
2018-Jan-20 14:30N 17°01' W 061°47'0 0.0
2018-Jan-20 13:59N 17°01' W 061°47'0 0.0
2018-Jan-20 13:30N 17°01' W 061°47'0 0.0
2018-Jan-20 12:59N 17°01' W 061°47'0 0.0
2018-Jan-20 12:30N 17°01' W 061°47'0 0.0
2018-Jan-20 12:00N 17°01' W 061°47'0 0.0
2018-Jan-20 11:29N 17°01' W 061°47'0 0.0
2018-Jan-20 11:00N 17°01' W 061°47'0 0.0
2018-Jan-20 10:29N 17°01' W 061°47'0 0.0
2018-Jan-20 10:00N 17°01' W 061°47'0 0.0
2018-Jan-20 09:30N 17°01' W 061°47'0 0.0
2018-Jan-20 08:59N 17°01' W 061°47'0 0.0
2018-Jan-20 08:29N 17°01' W 061°47'0 0.0
2018-Jan-20 08:00N 17°01' W 061°47'0 0.0
2018-Jan-20 07:30N 17°01' W 061°47'0 0.0
2018-Jan-20 06:59N 17°01' W 061°47'0 0.0
2018-Jan-20 06:29N 17°01' W 061°47'0 0.0
2018-Jan-20 05:57N 17°01' W 061°47'0 0.0
2018-Jan-20 05:30N 17°01' W 061°47'0 0.0
2018-Jan-20 04:59N 17°01' W 061°47'0 0.0
2018-Jan-20 04:30N 17°01' W 061°47'0 0.0
2018-Jan-20 04:00N 17°01' W 061°47'0 0.0
2018-Jan-20 03:27N 17°01' W 061°47'0 0.0
2018-Jan-20 02:56N 17°01' W 061°47'0 0.0
2018-Jan-20 02:29N 17°01' W 061°47'0 0.0
2018-Jan-20 01:59N 17°01' W 061°47'0 0.0
2018-Jan-20 01:30N 17°01' W 061°47'0 0.0
2018-Jan-20 00:57N 17°01' W 061°47'0 0.0
2018-Jan-20 00:29N 17°01' W 061°47'0 0.0
2018-Jan-19 23:59N 17°01' W 061°47'0 0.0
2018-Jan-19 23:30N 17°01' W 061°47'0 0.0
2018-Jan-19 23:00N 17°01' W 061°47'0 0.0
2018-Jan-19 22:29N 17°01' W 061°47'0 0.0
2018-Jan-19 21:59N 17°01' W 061°47'0 0.0
2018-Jan-19 21:27N 17°01' W 061°47'0 0.0
2018-Jan-19 20:57N 17°01' W 061°47'0 0.0
2018-Jan-19 20:29N 17°01' W 061°47'0 0.0
2018-Jan-19 19:59N 17°01' W 061°47'0 0.0
2018-Jan-19 19:29N 17°01' W 061°47'0 0.0
2018-Jan-19 18:59N 17°01' W 061°47'0 0.0
2018-Jan-19 18:30N 17°01' W 061°47'0 0.0
2018-Jan-19 18:00N 17°01' W 061°47'0 0.0
2018-Jan-19 17:29N 17°01' W 061°47'0 0.0
2018-Jan-19 17:00N 17°01' W 061°47'0 0.0
2018-Jan-19 16:29N 17°01' W 061°47'0 0.0
2018-Jan-19 15:59N 17°01' W 061°47'0 0.0
2018-Jan-19 15:29N 17°01' W 061°47'0 0.0
2018-Jan-19 15:00N 17°01' W 061°47'0 0.0
2018-Jan-19 14:30N 17°01' W 061°47'0 0.0
2018-Jan-19 14:00N 17°01' W 061°47'0 0.0
2018-Jan-19 13:29N 17°01' W 061°47'0 0.0
2018-Jan-19 13:00N 17°01' W 061°47'0 0.0
2018-Jan-19 12:30N 17°01' W 061°47'0 0.0
2018-Jan-19 11:59N 17°01' W 061°47'0 0.0
2018-Jan-19 11:29N 17°01' W 061°47'0 0.0
2018-Jan-19 10:56N 17°01' W 061°47'0 0.0
2018-Jan-19 10:29N 17°01' W 061°47'0 0.0
2018-Jan-19 09:59N 17°01' W 061°47'0 0.0
2018-Jan-19 09:30N 17°01' W 061°47'0 0.0
2018-Jan-19 09:00N 17°01' W 061°47'0 0.0
2018-Jan-19 08:30N 17°01' W 061°47'0 0.0
2018-Jan-19 07:56N 17°01' W 061°47'0 0.0
2018-Jan-19 07:27N 17°01' W 061°47'0 0.0
2018-Jan-19 06:57N 17°01' W 061°47'0 0.0
2018-Jan-19 06:30N 17°01' W 061°47'0 0.0
2018-Jan-19 06:00N 17°01' W 061°47'0 0.0
2018-Jan-19 05:30N 17°01' W 061°47'0 0.0
2018-Jan-19 05:00N 17°01' W 061°47'0 0.0
2018-Jan-19 04:30N 17°01' W 061°47'0 0.0
2018-Jan-19 03:59N 17°01' W 061°47'0 0.0
2018-Jan-19 03:30N 17°01' W 061°47'0 0.0
2018-Jan-19 03:00N 17°01' W 061°47'0 0.0
2018-Jan-19 02:29N 17°01' W 061°47'0 0.0
2018-Jan-19 02:00N 17°01' W 061°47'0 0.0
2018-Jan-19 01:29N 17°01' W 061°47'0 0.0
2018-Jan-19 00:59N 17°01' W 061°47'0 0.0
2018-Jan-19 00:30N 17°01' W 061°47'0 0.0
2018-Jan-18 23:59N 17°01' W 061°47'0 0.0
2018-Jan-18 23:30N 17°01' W 061°47'0 0.0
2018-Jan-18 22:59N 17°01' W 061°47'0 0.0
2018-Jan-18 22:30N 17°01' W 061°47'0 0.0
2018-Jan-18 22:00N 17°01' W 061°47'0 0.0
2018-Jan-18 21:29N 17°01' W 061°47'0 0.0
2018-Jan-18 20:59N 17°01' W 061°47'0 0.0
2018-Jan-18 20:30N 17°01' W 061°47'0 0.0
2018-Jan-18 20:00N 17°01' W 061°47'0 0.0
2018-Jan-18 19:29N 17°01' W 061°47'0 0.0
2018-Jan-18 19:00N 17°01' W 061°47'0 0.0
2018-Jan-18 18:29N 17°01' W 061°47'0 0.0
2018-Jan-18 18:00N 17°01' W 061°47'0 0.0
2018-Jan-18 17:30N 17°01' W 061°47'0 0.0
2018-Jan-18 16:56N 17°01' W 061°47'0 0.0
2018-Jan-18 16:30N 17°01' W 061°47'0 0.0
2018-Jan-18 16:00N 17°01' W 061°47'0 0.0
2018-Jan-18 15:30N 17°01' W 061°47'0 0.0
2018-Jan-18 15:00N 17°01' W 061°47'0 0.0
2018-Jan-18 14:29N 17°01' W 061°47'0 0.0
2018-Jan-18 14:00N 17°01' W 061°47'0 0.0
2018-Jan-18 13:29N 17°01' W 061°47'0 0.0
2018-Jan-18 13:00N 17°01' W 061°47'0 0.0
2018-Jan-18 12:29N 17°01' W 061°47'0 0.0
2018-Jan-18 11:59N 17°01' W 061°47'0 0.0
2018-Jan-18 11:29N 17°01' W 061°47'0 0.0
2018-Jan-18 10:59N 17°01' W 061°47'0 0.0
2018-Jan-18 10:29N 17°01' W 061°47'0 0.0
2018-Jan-18 10:00N 17°01' W 061°47'0 0.0
2018-Jan-18 09:30N 17°01' W 061°47'0 0.0
2018-Jan-18 08:59N 17°01' W 061°47'0 0.0
2018-Jan-18 08:29N 17°01' W 061°47'0 0.0
2018-Jan-18 07:59N 17°01' W 061°47'0 0.0
2018-Jan-18 07:26N 17°01' W 061°47'0 0.0
2018-Jan-18 07:00N 17°01' W 061°47'0 0.0
2018-Jan-18 06:30N 17°01' W 061°47'0 0.0
2018-Jan-18 05:59N 17°01' W 061°47'0 0.0
2018-Jan-18 05:29N 17°01' W 061°47'0 0.0
2018-Jan-18 05:00N 17°01' W 061°47'0 0.0
2018-Jan-18 04:30N 17°01' W 061°47'0 0.0
2018-Jan-18 04:00N 17°01' W 061°47'0 0.0
2018-Jan-18 03:30N 17°01' W 061°47'0 0.0
2018-Jan-18 03:00N 17°01' W 061°47'0 0.0
2018-Jan-18 02:30N 17°01' W 061°47'0 0.0
2018-Jan-18 02:00N 17°01' W 061°47'0 0.0
2018-Jan-18 01:29N 17°01' W 061°47'0 0.0
2018-Jan-18 01:00N 17°01' W 061°47'0 0.0
2018-Jan-18 00:00N 17°01' W 061°47'0 0.2
2018-Jan-17 23:57N 17°01' W 061°47'  

Dump ship's entire track history